.
WxDataArchive / Data Records for 2011-03-12
2011-03-11 March 2011 2011-03-13

Data Records for Saturday, 12 March 2011

Time	Temp	Chill	HIndex	Humid	Dewpt	 Wind 	HiWind	WindDir	Rain 	Barom 
-----	----	-----	------	-----	-----	------	------	-------	-----	----- 
00:00	36.5	36.5	36.5	73	28.7	0	2	270	0.00	29.938 
00:05	36.6	36.6	36.6	72	28.4	0	2	270	0.00	29.938 
00:10	36.6	36.6	36.6	72	28.4	0	2	270	0.00	29.938 
00:15	36.6	36.6	36.6	72	28.4	0	2	270	0.00	29.919 
00:20	36.5	36.5	36.5	72	28.3	0	3	270	0.00	29.919 
00:25	36.2	36.2	36.2	72	28.1	0	1	270	0.00	29.919 
00:30	35.9	35.9	35.9	73	28.1	0	1	270	0.00	29.904 
00:35	35.8	35.8	35.8	73	28.0	0	1	270	0.00	29.904 
00:40	35.6	35.6	35.6	74	28.1	0	2	270	0.00	29.904 
00:45	35.5	35.5	35.5	74	28.0	0	1	270	0.00	29.900 
00:50	35.5	35.5	35.5	75	28.4	0	1	270	0.00	29.900 
00:55	35.3	35.3	35.3	75	28.2	0	0	---	0.00	29.900 
01:00	35.3	35.3	35.3	76	28.5	0	0	---	0.00	29.891 
01:05	35.2	35.2	35.2	76	28.4	0	1	270	0.00	29.891 
01:10	35.2	35.2	35.2	77	28.7	0	1	270	0.00	29.891 
01:15	35.2	35.2	35.2	77	28.7	0	0	---	0.00	29.883 
01:20	35.2	35.2	35.2	77	28.7	0	0	---	0.00	29.883 
01:25	35.2	35.2	35.2	77	28.7	0	2	270	0.00	29.883 
01:30	35.2	35.2	35.2	77	28.7	0	1	270	0.00	29.875 
01:35	35.3	35.3	35.3	77	28.8	0	1	270	0.00	29.875 
01:40	35.3	35.3	35.3	77	28.8	0	3	270	0.00	29.875 
01:45	35.3	35.3	35.3	77	28.8	0	2	270	0.00	29.868 
01:50	35.5	35.5	35.5	77	29.0	0	1	270	0.00	29.868 
01:55	35.5	35.5	35.5	77	29.0	0	1	270	0.00	29.868 
02:00	35.5	35.5	35.5	77	29.0	0	1	270	0.00	29.855 
02:05	35.3	35.3	35.3	77	28.8	0	1	270	0.00	29.855 
02:10	35.3	35.3	35.3	77	28.8	0	1	270	0.00	29.855 
02:15	35.2	35.2	35.2	77	28.7	0	2	270	0.00	29.842 
02:20	35.3	35.3	35.3	77	28.8	0	2	270	0.00	29.842 
02:25	35.3	35.3	35.3	77	28.8	0	1	270	0.00	29.842 
02:30	35.5	35.5	35.5	77	29.0	0	1	270	0.00	29.824 
02:35	35.5	35.5	35.5	77	29.0	0	1	270	0.00	29.824 
02:40	35.6	35.6	35.6	77	29.1	0	1	270	0.00	29.824 
02:45	35.8	35.8	35.8	77	29.3	0	2	270	0.00	29.809 
02:50	35.8	35.8	35.8	76	29.0	0	1	270	0.00	29.809 
02:55	35.8	35.8	35.8	76	29.0	0	3	270	0.00	29.809 
03:00	35.9	35.9	35.9	76	29.1	1	4	270	0.00	29.800 
03:05	36.2	36.2	36.2	76	29.4	0	2	270	0.00	29.800 
03:10	36.5	36.5	36.5	76	29.7	1	3	270	0.00	29.800 
03:15	36.8	36.8	36.8	75	29.6	0	2	270	0.00	29.786 
03:20	37.0	37.0	37.0	74	29.5	1	9	270	0.00	29.786 
03:25	37.3	37.3	37.3	74	29.8	1	3	270	0.00	29.786 
03:30	37.6	37.6	37.6	73	29.7	1	5	248	0.00	29.772 
03:35	37.9	37.9	37.9	72	29.7	1	3	248	0.00	29.772 
03:40	38.2	38.2	38.2	72	30.0	1	4	248	0.00	29.772 
03:45	38.5	38.5	38.5	71	29.9	1	4	248	0.00	29.763 
03:50	38.8	38.8	38.8	70	29.9	2	5	248	0.00	29.763 
03:55	39.1	39.1	39.1	69	29.8	1	4	248	0.00	29.763 
04:00	39.3	39.3	39.3	69	30.0	2	6	248	0.00	29.761 
04:05	39.5	39.5	39.5	68	29.8	2	6	248	0.00	29.761 
04:10	39.8	39.8	39.8	68	30.1	2	7	248	0.00	29.761 
04:15	39.9	39.9	39.9	68	30.2	2	5	248	0.00	29.753 
04:20	39.9	39.9	39.9	68	30.2	2	6	248	0.00	29.753 
04:25	40.1	40.1	40.1	68	30.4	2	5	248	0.00	29.753 
04:30	40.2	40.2	40.2	68	30.5	2	5	248	0.00	29.743 
04:35	40.3	40.3	40.3	67	30.2	2	5	248	0.00	29.743 
04:40	40.5	40.5	40.5	67	30.4	1	4	248	0.00	29.743 
04:45	40.6	40.6	40.6	68	30.9	1	4	248	0.00	29.737 
04:50	40.8	40.8	40.8	68	31.1	2	7	248	0.00	29.737 
04:55	40.8	40.8	40.8	67	30.7	2	4	248	0.00	29.737 
05:00	40.9	40.9	40.9	68	31.2	2	5	248	0.00	29.737 
05:05	41.1	41.1	41.1	68	31.4	3	9	248	0.00	29.737 
05:10	41.3	41.3	41.3	68	31.5	2	5	248	0.00	29.737 
05:15	41.5	41.5	41.5	68	31.7	2	6	248	0.00	29.731 
05:20	41.6	41.6	41.6	68	31.8	2	5	248	0.00	29.731 
05:25	41.8	41.8	41.8	68	32.0	2	5	248	0.00	29.731 
05:30	41.9	41.9	41.9	68	32.1	3	7	248	0.00	29.727 
05:35	41.9	41.9	41.9	68	32.1	2	9	248	0.00	29.727 
05:40	41.8	41.8	41.8	68	32.0	3	7	248	0.00	29.727 
05:45	41.8	41.8	41.8	68	32.0	2	6	248	0.00	29.725 
05:50	41.6	41.6	41.6	69	32.2	3	6	248	0.00	29.725 
05:55	41.6	41.6	41.6	69	32.2	2	8	248	0.00	29.725 
06:00	41.5	41.5	41.5	70	32.5	3	7	248	0.00	29.721 
06:05	41.5	41.5	41.5	70	32.5	2	6	248	0.00	29.721 
06:10	41.3	41.3	41.3	70	32.3	3	9	248	0.00	29.721 
06:15	41.3	41.3	41.3	71	32.6	2	6	248	0.00	29.725 
06:20	41.2	41.2	41.2	71	32.5	2	6	248	0.00	29.725 
06:25	41.1	41.1	41.1	72	32.8	2	6	248	0.00	29.725 
06:30	41.1	41.1	41.1	73	33.1	2	5	248	0.00	29.724 
06:35	40.9	40.9	40.9	73	32.9	2	9	248	0.00	29.724 
06:40	41.1	41.1	41.1	73	33.1	3	6	248	0.00	29.724 
06:45	41.1	41.1	41.1	74	33.5	2	5	248	0.00	29.727 
06:50	41.2	41.2	41.2	75	33.9	3	11	248	0.00	29.727 
06:55	41.2	41.2	41.2	75	33.9	3	11	248	0.00	29.727 
07:00	41.5	41.5	41.5	75	34.2	3	11	248	0.00	29.727 
07:05	41.6	41.6	41.6	75	34.3	2	9	270	0.00	29.727 
07:10	41.6	41.6	41.6	76	34.6	3	6	248	0.00	29.727 
07:15	41.8	41.8	41.8	76	34.8	2	6	248	0.00	29.734 
07:20	42.1	42.1	42.1	76	35.1	3	6	248	0.00	29.734 
07:25	42.3	42.3	42.3	76	35.3	3	7	248	0.00	29.734 
07:30	42.6	42.6	42.6	75	35.2	3	7	248	0.00	29.729 
07:35	42.9	42.9	42.9	74	35.2	2	6	248	0.00	29.729 
07:40	43.1	43.1	43.1	74	35.4	2	5	248	0.00	29.729 
07:45	43.3	41.1	43.3	73	35.2	4	7	248	0.00	29.728 
07:50	43.5	43.5	43.5	72	35.1	3	7	248	0.00	29.728 
07:55	43.8	43.8	43.8	71	35.0	3	9	270	0.00	29.728 
08:00	43.9	43.9	43.9	71	35.1	3	9	248	0.00	29.731 
08:05	44.2	44.2	44.2	70	35.0	3	6	248	0.00	29.731 
08:10	44.3	44.3	44.3	69	34.8	3	6	248	0.00	29.731 
08:15	44.5	42.5	44.5	69	35.0	4	6	248	0.00	29.732 
08:20	44.6	44.6	44.6	68	34.7	3	5	248	0.00	29.732 
08:25	44.9	44.9	44.9	68	35.0	3	7	248	0.00	29.732 
08:30	45.1	43.2	45.1	67	34.8	4	10	248	0.00	29.733 
08:35	45.2	43.3	45.2	67	34.9	4	11	248	0.00	29.733 
08:40	45.7	43.9	45.7	65	34.6	4	12	270	0.00	29.733 
08:45	46.0	44.2	46.0	63	34.1	4	9	248	0.00	29.731 
08:50	46.4	44.7	46.4	62	34.1	4	10	270	0.00	29.731 
08:55	46.7	43.7	46.7	61	34.0	6	16	270	0.00	29.731 
09:00	46.8	44.5	46.8	61	34.1	5	12	248	0.00	29.733 
09:05	46.8	43.9	46.8	61	34.1	6	16	270	0.00	29.733 
09:10	46.8	44.5	46.8	61	34.1	5	12	270	0.00	29.733 
09:15	47.1	45.5	47.1	61	34.4	4	10	270	0.00	29.737 
09:20	47.1	44.2	47.1	60	33.9	6	13	270	0.00	29.737 
09:25	47.3	45.0	47.3	60	34.1	5	11	270	0.00	29.737 
09:30	47.3	44.5	47.3	61	34.5	6	13	270	0.00	29.741 
09:35	47.3	43.5	47.3	60	34.1	8	18	270	0.00	29.741 
09:40	47.1	43.2	47.1	61	34.4	8	22	270	0.00	29.741 
09:45	47.3	43.9	47.3	61	34.5	7	15	270	0.00	29.741 
09:50	47.4	44.6	47.4	61	34.6	6	10	270	0.00	29.741 
09:55	47.6	45.4	47.6	61	34.8	5	15	270	0.00	29.741 
10:00	47.6	44.8	47.6	61	34.8	6	17	270	0.00	29.743 
10:05	47.1	44.2	47.1	61	34.4	6	14	270	0.00	29.743 
10:10	46.8	43.9	46.8	61	34.1	6	14	248	0.00	29.743 
10:15	46.4	42.9	46.4	61	33.7	7	15	270	0.00	29.754 
10:20	46.1	43.6	46.1	62	33.8	5	14	270	0.00	29.754 
10:25	45.8	42.7	45.8	66	35.1	6	11	270	0.00	29.754 
10:30	45.5	42.9	45.5	64	34.0	5	10	270	0.00	29.758 
10:35	45.2	42.0	45.2	63	33.4	6	15	270	0.00	29.758 
10:40	45.4	42.8	45.4	63	33.6	5	12	270	0.00	29.758 
10:45	45.1	41.8	45.1	63	33.3	6	12	270	0.00	29.761 
10:50	45.2	42.0	45.2	62	33.0	6	15	270	0.00	29.761 
10:55	45.2	41.4	45.2	61	32.6	7	13	270	0.00	29.761 
11:00	44.9	41.6	44.9	63	33.1	6	17	270	0.00	29.773 
11:05	44.6	41.2	44.6	63	32.8	6	12	270	0.00	29.773 
11:10	44.9	42.2	44.9	64	33.5	5	10	270	0.00	29.773 
11:15	45.4	42.8	45.4	63	33.6	5	13	270	0.00	29.769 
11:20	45.7	42.5	45.7	62	33.4	6	18	270	0.00	29.769 
11:25	45.5	42.3	45.5	62	33.2	6	15	270	0.00	29.769 
11:30	45.2	42.0	45.2	63	33.4	6	11	270	0.00	29.776 
11:35	44.8	41.5	44.8	63	33.0	6	13	270	0.00	29.776 
11:40	44.9	41.6	44.9	63	33.1	6	14	270	0.00	29.776 
11:45	44.9	41.6	44.9	62	32.7	6	14	270	0.00	29.780 
11:50	44.8	42.1	44.8	63	33.0	5	11	270	0.00	29.780 
11:55	44.6	41.2	44.6	63	32.8	6	12	270	0.00	29.780 
12:00	44.8	41.5	44.8	64	33.4	6	15	270	0.00	29.777 
12:05	44.6	40.7	44.6	62	32.4	7	14	270	0.00	29.777 
12:10	44.5	40.6	44.5	62	32.3	7	16	270	0.00	29.777 
12:15	44.8	42.1	44.8	61	32.2	5	14	270	0.00	29.786 
12:20	44.6	40.7	44.6	60	31.6	7	13	270	0.00	29.786 
12:25	45.1	41.3	45.1	59	31.6	7	18	270	0.00	29.786 
12:30	44.9	41.6	44.9	58	31.0	6	13	270	0.00	29.800 
12:35	44.3	40.9	44.3	58	30.5	6	12	270	0.00	29.800 
12:40	44.5	41.8	44.5	60	31.5	5	10	270	0.00	29.800 
12:45	44.9	42.2	44.9	58	31.0	5	9	270	0.00	29.803 
12:50	45.4	42.8	45.4	58	31.5	5	11	270	0.00	29.803 
12:55	45.5	42.3	45.5	58	31.6	6	13	270	0.00	29.803 
13:00	45.1	41.8	45.1	57	30.8	6	11	270	0.00	29.804 
13:05	44.9	42.2	44.9	58	31.0	5	13	270	0.00	29.804 
13:10	45.7	43.2	45.7	58	31.8	5	11	270	0.00	29.804 
13:15	45.2	42.0	45.2	57	30.9	6	15	270	0.00	29.804 
13:20	44.6	41.2	44.6	58	30.7	6	13	270	0.00	29.804 
13:25	44.5	41.8	44.5	59	31.1	5	13	270	0.00	29.804 
13:30	44.3	41.5	44.3	60	31.3	5	14	270	0.00	29.807 
13:35	44.3	40.9	44.3	58	30.5	6	11	270	0.00	29.807 
13:40	44.2	40.8	44.2	58	30.4	6	17	270	0.00	29.807 
13:45	43.8	40.3	43.8	60	30.8	6	14	270	0.00	29.813 
13:50	43.8	40.9	43.8	61	31.2	5	11	248	0.00	29.813 
13:55	43.6	40.7	43.6	61	31.0	5	10	270	0.00	29.813 
14:00	43.8	40.9	43.8	61	31.2	5	12	248	0.00	29.816 
14:05	43.6	40.7	43.6	62	31.5	5	9	270	0.00	29.816 
14:10	43.3	39.7	43.3	63	31.6	6	19	270	0.00	29.816 
14:15	42.9	39.9	42.9	65	32.0	5	11	248	0.00	29.822 
14:20	42.6	39.5	42.6	65	31.7	5	12	270	0.00	29.822 
14:25	42.5	38.2	42.5	65	31.6	7	14	270	0.00	29.822 
14:30	42.8	40.6	42.8	66	32.2	4	9	270	0.00	29.820 
14:35	43.1	40.9	43.1	65	32.1	4	8	270	0.00	29.820 
14:40	43.2	39.6	43.2	64	31.9	6	12	270	0.00	29.820 
14:45	43.2	39.0	43.2	64	31.9	7	16	270	0.00	29.821 
14:50	43.1	40.1	43.1	64	31.8	5	14	270	0.00	29.821 
14:55	43.2	43.2	43.2	65	32.2	3	7	270	0.00	29.821 
15:00	43.3	40.3	43.3	64	32.0	5	13	270	0.00	29.825 
15:05	43.3	40.3	43.3	64	32.0	5	9	248	0.00	29.825 
15:10	43.2	39.0	43.2	64	31.9	7	15	270	0.00	29.825 
15:15	43.1	40.9	43.1	64	31.8	4	12	270	0.00	29.831 
15:20	43.1	40.1	43.1	65	32.1	5	11	270	0.00	29.831 
15:25	42.9	39.9	42.9	65	32.0	5	11	270	0.00	29.831 
15:30	42.9	39.2	42.9	65	32.0	6	11	270	0.00	29.833 
15:35	43.1	38.9	43.1	65	32.1	7	14	270	0.00	29.833 
15:40	43.1	40.1	43.1	65	32.1	5	11	270	0.00	29.833 
15:45	43.1	39.5	43.1	65	32.1	6	15	270	0.00	29.845 
15:50	43.3	39.7	43.3	64	32.0	6	14	270	0.00	29.845 
15:55	43.8	40.9	43.8	63	32.0	5	10	270	0.00	29.845 
16:00	43.9	41.1	43.9	62	31.7	5	12	270	0.00	29.847 
16:05	43.9	40.4	43.9	62	31.7	6	17	270	0.00	29.847 
16:10	43.9	39.8	43.9	61	31.3	7	13	270	0.00	29.847 
16:15	44.2	42.2	44.2	62	32.0	4	11	270	0.00	29.846 
16:20	44.2	41.4	44.2	61	31.6	5	11	270	0.00	29.846 
16:25	44.2	40.8	44.2	61	31.6	6	12	270	0.00	29.846 
16:30	44.3	41.5	44.3	61	31.7	5	10	270	0.00	29.849 
16:35	44.3	40.9	44.3	61	31.7	6	13	270	0.00	29.849 
16:40	44.3	40.9	44.3	61	31.7	6	13	270	0.00	29.849 
16:45	44.3	41.5	44.3	62	32.1	5	11	270	0.00	29.855 
16:50	44.3	42.3	44.3	63	32.5	4	13	270	0.00	29.855 
16:55	44.3	42.3	44.3	62	32.1	4	10	270	0.00	29.855 
17:00	44.2	40.8	44.2	62	32.0	6	11	270	0.00	29.862 
17:05	44.1	41.3	44.1	62	31.9	5	10	270	0.00	29.862 
17:10	44.1	41.3	44.1	62	31.9	5	12	270	0.00	29.862 
17:15	43.9	41.1	43.9	62	31.7	5	12	270	0.00	29.867 
17:20	43.8	40.3	43.8	62	31.6	6	12	270	0.00	29.867 
17:25	43.6	40.0	43.6	62	31.5	6	10	270	0.00	29.867 
17:30	43.6	41.5	43.6	62	31.5	4	9	270	0.00	29.877 
17:35	43.5	40.6	43.5	62	31.4	5	11	270	0.00	29.877 
17:40	43.5	39.9	43.5	62	31.4	6	12	270	0.00	29.877 
17:45	43.3	39.7	43.3	62	31.2	6	12	270	0.00	29.895 
17:50	43.1	39.5	43.1	62	31.0	6	11	270	0.00	29.895 
17:55	42.9	39.2	42.9	62	30.8	6	15	270	0.00	29.895 
18:00	42.8	39.8	42.8	62	30.7	5	11	270	0.00	29.900 
18:05	42.5	40.2	42.5	63	30.8	4	7	270	0.00	29.900 
18:10	42.2	39.9	42.2	63	30.5	4	9	270	0.00	29.900 
18:15	41.8	38.6	41.8	63	30.1	5	9	292	0.00	29.912 
18:20	41.5	38.2	41.5	63	29.9	5	10	270	0.00	29.912 
18:25	41.2	37.9	41.2	64	30.0	5	10	270	0.00	29.912 
18:30	41.1	37.8	41.1	64	29.9	5	9	270	0.00	29.922 
18:35	40.9	40.9	40.9	64	29.7	3	7	248	0.00	29.922 
18:40	40.9	40.9	40.9	65	30.1	3	6	270	0.00	29.922 
18:45	40.9	40.9	40.9	65	30.1	3	6	270	0.00	29.929 
18:50	40.8	40.8	40.8	65	30.0	3	6	270	0.00	29.929 
18:55	40.8	38.2	40.8	65	30.0	4	7	270	0.00	29.929 
19:00	40.6	38.0	40.6	65	29.8	4	7	270	0.00	29.937 
19:05	40.5	37.9	40.5	65	29.7	4	9	270	0.00	29.937 
19:10	40.2	37.5	40.2	65	29.4	4	7	270	0.00	29.937 
19:15	40.1	37.4	40.1	65	29.3	4	8	270	0.00	29.942 
19:20	39.9	36.4	39.9	65	29.1	5	10	270	0.00	29.942 
19:25	39.8	37.1	39.8	65	29.0	4	8	270	0.00	29.942 
19:30	39.5	39.5	39.5	66	29.1	3	5	270	0.00	29.951 
19:35	39.3	39.3	39.3	66	28.9	2	4	270	0.00	29.951 
19:40	39.2	39.2	39.2	67	29.2	3	6	270	0.00	29.951 
19:45	39.1	39.1	39.1	67	29.1	3	5	270	0.00	29.958 
19:50	38.9	38.9	38.9	67	28.9	2	4	270	0.00	29.958 
19:55	38.6	38.6	38.6	68	29.0	2	6	270	0.00	29.958 
20:00	38.5	38.5	38.5	68	28.9	3	6	248	0.00	29.961 
20:05	38.3	38.3	38.3	69	29.0	2	5	248	0.00	29.961 
20:10	38.2	38.2	38.2	69	28.9	2	5	270	0.00	29.961 
20:15	38.0	38.0	38.0	70	29.1	2	5	315	0.00	29.970 
20:20	37.9	37.9	37.9	70	29.0	2	6	270	0.00	29.970 
20:25	38.0	35.0	38.0	70	29.1	4	8	270	0.00	29.970 
20:30	38.0	35.0	38.0	69	28.7	4	10	270	0.00	29.973 
20:35	37.9	37.9	37.9	69	28.7	3	6	270	0.00	29.973 
20:40	37.9	34.9	37.9	69	28.7	4	8	270	0.00	29.973 
20:45	37.8	37.8	37.8	69	28.6	3	6	270	0.00	29.979 
20:50	37.5	37.5	37.5	69	28.3	2	5	270	0.00	29.979 
20:55	37.3	37.3	37.3	70	28.4	3	5	248	0.00	29.979 
21:00	37.2	37.2	37.2	70	28.3	2	4	248	0.00	29.990 
21:05	36.9	36.9	36.9	71	28.4	1	3	248	0.00	29.990 
21:10	36.6	36.6	36.6	71	28.1	2	7	248	0.00	29.990 
21:15	36.6	36.6	36.6	71	28.1	2	4	292	0.00	29.999 
21:20	36.6	36.6	36.6	71	28.1	3	7	315	0.00	29.999 
21:25	36.8	36.8	36.8	71	28.3	2	5	270	0.00	29.999 
21:30	36.8	36.8	36.8	71	28.3	3	10	270	0.00	30.005 
21:35	36.8	36.8	36.8	71	28.3	3	5	270	0.00	30.005 
21:40	36.6	36.6	36.6	71	28.1	3	7	270	0.00	30.005 
21:45	36.6	36.6	36.6	72	28.4	2	5	270	0.00	30.010 
21:50	36.6	36.6	36.6	72	28.4	2	5	270	0.00	30.010 
21:55	36.5	36.5	36.5	72	28.3	3	7	270	0.00	30.010 
22:00	36.5	36.5	36.5	72	28.3	3	6	270	0.00	30.013 
22:05	36.5	36.5	36.5	72	28.3	3	7	270	0.00	30.013 
22:10	36.3	36.3	36.3	72	28.2	3	6	270	0.00	30.013 
22:15	36.3	36.3	36.3	72	28.2	3	5	270	0.00	30.024 
22:20	36.3	36.3	36.3	72	28.2	3	6	248	0.00	30.024 
22:25	36.2	36.2	36.2	72	28.1	2	4	270	0.00	30.024 
22:30	36.2	36.2	36.2	72	28.1	2	4	270	0.00	30.026 
22:35	36.2	36.2	36.2	72	28.1	2	5	270	0.00	30.026 
22:40	36.2	36.2	36.2	72	28.1	2	9	315	0.00	30.026 
22:45	36.2	36.2	36.2	73	28.4	2	4	315	0.00	30.037 
22:50	36.0	36.0	36.0	73	28.2	2	5	270	0.00	30.037 
22:55	36.0	36.0	36.0	73	28.2	3	5	225	0.00	30.037 
23:00	36.0	36.0	36.0	73	28.2	2	5	270	0.00	30.039 
23:05	36.0	36.0	36.0	73	28.2	2	4	270	0.00	30.039 
23:10	36.0	36.0	36.0	73	28.2	3	7	270	0.00	30.039 
23:15	35.9	32.6	35.9	72	27.8	4	7	270	0.00	30.046 
23:20	35.9	35.9	35.9	72	27.8	3	6	270	0.00	30.046 
23:25	35.8	35.8	35.8	72	27.7	3	7	315	0.00	30.046 
23:30	35.8	35.8	35.8	72	27.7	2	7	315	0.00	30.055 
23:35	35.6	35.6	35.6	72	27.5	2	5	270	0.00	30.055 
23:40	35.5	35.5	35.5	73	27.7	2	5	338	0.00	30.055 
23:45	35.3	35.3	35.3	73	27.5	3	6	292	0.00	30.057 
23:50	35.3	31.9	35.3	73	27.5	4	8	270	0.00	30.057 
23:55	35.2	35.2	35.2	73	27.4	3	7	292	0.00	30.057 

CoCoRaHS
IN-AL-39
A2 Web Hosting
Creative Commons License
GoDaddy
search engine by freefind advanced

loaded 2018-11-14 04:32:19 • last modified 2010-11-18 10:43:29
Privacy PolicyDisclaimer
• wx.awcolley.com is powered by PmWiki v.2002016 •
• all content (unless otherwise noted) © 2018 A W Colley